createdAt,value
2019-05-18T00:00:47.440Z,14.2
2019-05-18T00:05:44.480Z,14.2
2019-05-18T00:10:41.377Z,14.2
2019-05-18T00:15:38.397Z,14
2019-05-18T00:20:35.433Z,14.1
2019-05-18T00:25:32.370Z,14.1
2019-05-18T00:30:29.264Z,14.1
2019-05-18T00:35:26.397Z,14.1
2019-05-18T00:40:23.409Z,14.1
2019-05-18T00:45:20.426Z,14.1
2019-05-18T00:50:16.850Z,14
2019-05-18T00:55:13.862Z,13.6
2019-05-18T01:00:10.866Z,13.9
2019-05-18T01:05:07.431Z,13.9
2019-05-18T01:10:03.866Z,13.9
2019-05-18T01:15:00.917Z,13.8
2019-05-18T01:19:58.071Z,13.8
2019-05-18T01:24:54.567Z,13.8
2019-05-18T01:29:51.401Z,13.7
2019-05-18T01:34:48.233Z,13.7
2019-05-18T01:39:45.084Z,13.6
2019-05-18T01:44:42.056Z,13.5
2019-05-18T01:49:38.961Z,13.5
2019-05-18T01:54:35.634Z,13.5
2019-05-18T01:59:32.661Z,13
2019-05-18T02:04:29.507Z,13.5
2019-05-18T02:09:26.637Z,13.3
2019-05-18T02:14:23.663Z,13.3
2019-05-18T02:19:20.550Z,13.4
2019-05-18T02:24:17.482Z,13.3
2019-05-18T02:29:14.521Z,13.3
2019-05-18T02:34:11.311Z,12.9
2019-05-18T02:39:08.148Z,12.3
2019-05-18T02:44:05.132Z,13.1
2019-05-18T02:49:02.115Z,13.2
2019-05-18T02:53:59.140Z,13.2
2019-05-18T02:58:55.961Z,13.2
2019-05-18T03:03:52.834Z,13.1
2019-05-18T03:08:51.318Z,13.1
2019-05-18T03:13:49.917Z,13.2
2019-05-18T03:18:47.034Z,13.1
2019-05-18T03:23:44.427Z,12.6
2019-05-18T03:28:41.553Z,12.8
2019-05-18T03:33:40.571Z,12.9
2019-05-18T03:38:37.057Z,12.7
2019-05-18T03:43:34.668Z,12.9
2019-05-18T03:48:32.026Z,12.9
2019-05-18T03:53:32.470Z,12.4
2019-05-18T03:58:28.909Z,12.9
2019-05-18T04:03:26.793Z,12.9
2019-05-18T04:08:25.158Z,12.4
2019-05-18T04:13:24.401Z,13
2019-05-18T04:18:21.114Z,12.2
2019-05-18T04:23:19.755Z,12.8
2019-05-18T04:28:16.499Z,12.7
2019-05-18T04:33:15.040Z,13
2019-05-18T04:38:11.728Z,12.4
2019-05-18T04:43:09.133Z,12.8
2019-05-18T04:48:05.891Z,12.8
2019-05-18T04:53:05.101Z,12.9
2019-05-18T04:58:01.469Z,12.3
2019-05-18T05:02:58.130Z,12.7
2019-05-18T05:07:54.912Z,12.4
2019-05-18T05:12:51.662Z,12.5
2019-05-18T05:17:49.023Z,13.2
2019-05-18T05:22:46.924Z,12.9
2019-05-18T05:27:43.893Z,13.1
2019-05-18T05:32:41.210Z,13.1
2019-05-18T05:37:38.299Z,13.1
2019-05-18T05:42:35.211Z,13.2
2019-05-18T05:47:32.846Z,12.9
2019-05-18T05:52:30.733Z,13.4
2019-05-18T05:57:27.954Z,13.3
2019-05-18T06:02:24.764Z,13.4
2019-05-18T06:07:21.756Z,13.4
2019-05-18T06:12:18.943Z,13.4
2019-05-18T06:17:16.228Z,13.1
2019-05-18T06:22:13.610Z,13.6
2019-05-18T06:27:10.689Z,13.7
2019-05-18T06:32:08.033Z,13.3
2019-05-18T06:37:04.872Z,13.7
2019-05-18T06:42:01.620Z,13.8
2019-05-18T06:46:58.420Z,13.9
2019-05-18T06:51:55.771Z,13.9
2019-05-18T06:56:52.629Z,13.9
2019-05-18T07:01:49.421Z,14
2019-05-18T07:06:46.247Z,14.1
2019-05-18T07:11:43.123Z,13.6
2019-05-18T07:16:40.495Z,13.9
2019-05-18T07:21:37.571Z,13.7
2019-05-18T07:26:34.727Z,14.2
2019-05-18T07:31:31.643Z,14.3
2019-05-18T07:36:28.740Z,14.3
2019-05-18T07:41:26.479Z,13.9
2019-05-18T07:46:23.121Z,14.4
2019-05-18T07:51:20.310Z,14.6
2019-05-18T07:56:17.812Z,14.7
2019-05-18T08:01:14.930Z,14.7
2019-05-18T08:06:11.814Z,14.8
2019-05-18T08:11:09.027Z,14.8
2019-05-18T08:16:06.278Z,14.2
2019-05-18T08:21:03.637Z,14.9
2019-05-18T08:26:00.342Z,15
2019-05-18T08:30:57.389Z,15.1
2019-05-18T08:35:54.430Z,15.1
2019-05-18T08:40:51.592Z,15.3
2019-05-18T08:45:48.639Z,15.3
2019-05-18T08:50:45.660Z,15.4
2019-05-18T08:55:42.831Z,14.7
2019-05-18T09:00:39.886Z,15.7
2019-05-18T09:05:36.944Z,15.6
2019-05-18T09:10:33.949Z,16
2019-05-18T09:15:30.839Z,16
2019-05-18T09:20:28.057Z,16
2019-05-18T09:25:25.156Z,16.1
2019-05-18T09:30:22.283Z,16.3
2019-05-18T09:35:19.231Z,16.4
2019-05-18T09:40:16.503Z,16.6
2019-05-18T09:45:13.760Z,16.7
2019-05-18T09:50:11.074Z,17
2019-05-18T09:55:08.280Z,17.3
2019-05-18T10:00:05.388Z,17.4
2019-05-18T10:05:02.639Z,17.5
2019-05-18T10:09:59.972Z,17.9
2019-05-18T10:14:57.263Z,18.1
2019-05-18T10:19:54.248Z,18.3
2019-05-18T10:24:52.119Z,18.2
2019-05-18T10:29:48.605Z,18.3
2019-05-18T10:34:45.660Z,17.9
2019-05-18T10:39:43.037Z,18.4
2019-05-18T10:44:40.140Z,18
2019-05-18T10:49:37.331Z,18.7
2019-05-18T10:54:34.664Z,18.9
2019-05-18T10:59:31.802Z,18.8
2019-05-18T11:04:29.024Z,19.3
2019-05-18T11:09:26.381Z,19.2
2019-05-18T11:14:24.140Z,19.2
2019-05-18T11:19:20.869Z,19.4
2019-05-18T11:24:18.073Z,19.5
2019-05-18T11:29:15.734Z,19.4
2019-05-18T11:34:12.828Z,19.9
2019-05-18T11:39:10.039Z,20
2019-05-18T11:44:10.550Z,20.1
2019-05-18T11:49:04.840Z,20.2
2019-05-18T11:54:02.125Z,20.6
2019-05-18T11:58:59.526Z,20.8
2019-05-18T12:03:56.718Z,20.9
2019-05-18T12:08:54.237Z,21.1
2019-05-18T12:13:51.554Z,21.2
2019-05-18T12:18:48.445Z,21.3
2019-05-18T12:23:45.733Z,22
2019-05-18T12:28:42.991Z,21.7
2019-05-18T12:33:40.095Z,22.1
2019-05-18T12:38:37.484Z,22.1
2019-05-18T12:43:34.723Z,22.2
2019-05-18T12:48:32.646Z,22.6
2019-05-18T12:53:30.229Z,22.5
2019-05-18T12:58:27.531Z,22.6
2019-05-18T13:03:24.628Z,22.7
2019-05-18T13:08:21.807Z,22.7
2019-05-18T13:13:19.146Z,22.8
2019-05-18T13:18:16.273Z,22.9
2019-05-18T13:23:13.685Z,23
2019-05-18T13:28:10.880Z,23.1
2019-05-18T13:33:08.053Z,23.3
2019-05-18T13:38:05.000Z,23.3
2019-05-18T13:43:02.355Z,23
2019-05-18T13:47:59.480Z,23.6
2019-05-18T13:52:56.727Z,23.9
2019-05-18T13:57:54.676Z,24
2019-05-18T14:02:51.689Z,24
2019-05-18T14:07:48.811Z,23.6
2019-05-18T14:12:46.009Z,23.8
2019-05-18T14:17:42.968Z,23.7
2019-05-18T14:22:40.230Z,23.3
2019-05-18T14:27:37.550Z,23.7
2019-05-18T14:32:34.661Z,23.3
2019-05-18T14:37:31.639Z,23.3
2019-05-18T14:42:28.934Z,23.2
2019-05-18T14:47:27.484Z,23.2
2019-05-18T14:52:23.177Z,23.2
2019-05-18T14:57:20.178Z,23
2019-05-18T15:02:18.090Z,23
2019-05-18T15:07:15.360Z,23
2019-05-18T15:12:12.301Z,23
2019-05-18T15:17:09.662Z,23.4
2019-05-18T15:22:07.120Z,23
2019-05-18T15:27:04.496Z,23
2019-05-18T15:32:01.491Z,23
2019-05-18T15:36:58.249Z,23
2019-05-18T15:41:55.596Z,22.9
2019-05-18T15:46:52.310Z,22.9
2019-05-18T15:51:49.434Z,22.9
2019-05-18T15:56:46.617Z,22.9
2019-05-18T16:01:43.727Z,23
2019-05-18T16:06:40.930Z,23
2019-05-18T16:11:38.282Z,23.1
2019-05-18T16:16:35.230Z,23.1
2019-05-18T16:21:32.290Z,23
2019-05-18T16:26:29.614Z,22.9
2019-05-18T16:31:26.712Z,22.9
2019-05-18T16:36:24.151Z,22.8
2019-05-18T16:41:21.152Z,22.7
2019-05-18T16:46:18.136Z,22.6
2019-05-18T16:51:15.873Z,22.5
2019-05-18T16:56:12.765Z,22.4
2019-05-18T17:01:10.058Z,22.3
2019-05-18T17:06:07.041Z,22.1
2019-05-18T17:11:04.016Z,22.2
2019-05-18T17:16:01.251Z,22.1
2019-05-18T17:20:58.157Z,21.9
2019-05-18T17:25:55.062Z,17.8
2019-05-18T17:30:51.899Z,21.8
2019-05-18T17:35:59.638Z,21.7
2019-05-18T17:40:46.338Z,21.7
2019-05-18T17:45:43.083Z,21.6
2019-05-18T17:50:40.282Z,21.6
2019-05-18T17:55:37.326Z,21.5
2019-05-18T18:00:34.577Z,21.5
2019-05-18T18:05:31.536Z,21.4
2019-05-18T18:10:28.685Z,21.4
2019-05-18T18:15:25.739Z,21.3
2019-05-18T18:20:22.742Z,21.2
2019-05-18T18:25:20.091Z,21.2
2019-05-18T18:35:14.233Z,21.1
2019-05-18T18:40:11.294Z,21
2019-05-18T18:45:08.367Z,21
2019-05-18T18:50:05.362Z,21
2019-05-18T18:55:02.476Z,20.8
2019-05-18T18:59:59.058Z,20.8
2019-05-18T19:04:56.031Z,20.8
2019-05-18T19:09:53.333Z,20.7
2019-05-18T19:14:50.127Z,20.7
2019-05-18T19:19:47.139Z,20.6
2019-05-18T19:24:43.917Z,20.5
2019-05-18T19:29:40.927Z,20.4
2019-05-18T19:34:37.963Z,20.3
2019-05-18T19:39:35.276Z,20.4
2019-05-18T19:44:32.081Z,20.3
2019-05-18T19:49:29.089Z,19.9
2019-05-18T19:54:26.165Z,20.1
2019-05-18T19:59:22.832Z,20
2019-05-18T20:04:19.463Z,19.9
2019-05-18T20:09:16.658Z,19.9
2019-05-18T20:14:14.150Z,19.8
2019-05-18T20:19:11.129Z,19.7
2019-05-18T20:24:08.397Z,19.6
2019-05-18T20:29:05.500Z,19.5
2019-05-18T20:34:02.745Z,19.4
2019-05-18T20:38:59.628Z,19.4
2019-05-18T20:43:56.828Z,19.3
2019-05-18T20:48:54.003Z,19.2
2019-05-18T20:53:51.022Z,19.2
2019-05-18T20:58:48.341Z,19.4
2019-05-18T21:03:45.307Z,19.1
2019-05-18T21:08:42.417Z,19.1
2019-05-18T21:13:39.741Z,18.9
2019-05-18T21:18:36.878Z,19.1
2019-05-18T21:23:34.565Z,19
2019-05-18T21:28:31.933Z,19.5
2019-05-18T21:33:28.876Z,19
2019-05-18T21:38:26.226Z,19
2019-05-18T21:43:23.091Z,19.2
2019-05-18T21:48:19.964Z,18.9
2019-05-18T21:53:17.349Z,18.9
2019-05-18T21:58:14.541Z,18.9
2019-05-18T22:03:11.683Z,19.3
2019-05-18T22:08:08.739Z,18.5
2019-05-18T22:13:06.473Z,18.8
2019-05-18T22:18:03.271Z,19.2
2019-05-18T22:23:01.084Z,18.7
2019-05-18T22:27:58.503Z,18.7
2019-05-18T22:32:55.832Z,18.7
2019-05-18T22:37:52.830Z,19.1
2019-05-18T22:42:49.894Z,19
2019-05-18T22:47:46.961Z,18.5
2019-05-18T22:52:43.783Z,18.6
2019-05-18T22:57:41.569Z,18.6
2019-05-18T23:02:38.473Z,18.1
2019-05-18T23:07:35.367Z,18.6
2019-05-18T23:12:32.481Z,18.6
2019-05-18T23:17:29.498Z,18.5
2019-05-18T23:22:26.736Z,18.9
2019-05-18T23:27:24.181Z,18.5
2019-05-18T23:32:21.295Z,18.4
2019-05-18T23:37:19.065Z,18.2
2019-05-18T23:42:16.467Z,18.3
2019-05-18T23:47:13.395Z,18.4
2019-05-18T23:52:10.717Z,18.4
2019-05-18T23:57:07.702Z,18.2
